createdAt,value
2022-10-03T00:00:31.625Z,95299.47
2022-10-03T00:03:22.969Z,95313.84
2022-10-03T00:06:14.437Z,95315.16
2022-10-03T00:08:56.200Z,95317.47
2022-10-03T00:11:32.999Z,95320.44
2022-10-03T00:14:10.148Z,95329.03
2022-10-03T00:16:42.844Z,95337.59
2022-10-03T00:19:35.590Z,95338.06
2022-10-03T00:22:14.858Z,95323.09
2022-10-03T00:24:44.658Z,95335.63
2022-10-03T00:27:30.165Z,95336.13
2022-10-03T00:30:04.701Z,95341.56
2022-10-03T00:32:31.838Z,95344.81
2022-10-03T00:35:23.802Z,95347.50
2022-10-03T00:38:41.767Z,95359.81
2022-10-03T00:41:14.514Z,95364.94
2022-10-03T00:43:52.214Z,95370.22
2022-10-03T00:46:30.669Z,95376.16
2022-10-03T00:49:42.900Z,95359.16
2022-10-03T00:52:40.469Z,95381.75
2022-10-03T00:55:15.828Z,95378.75
2022-10-03T00:58:05.739Z,95385.88
2022-10-03T01:00:34.253Z,95386.03
2022-10-03T01:03:21.933Z,95386.88
2022-10-03T01:06:27.255Z,95392.78
2022-10-03T01:09:06.962Z,95386.97
2022-10-03T01:11:50.754Z,95370.63
2022-10-03T01:14:58.381Z,95378.38
2022-10-03T01:17:49.566Z,95367.69
2022-10-03T01:20:29.755Z,95361.75
2022-10-03T01:23:23.744Z,95370.13
2022-10-03T01:25:57.269Z,95361.22
2022-10-03T01:28:48.289Z,95363.84
2022-10-03T01:31:18.950Z,95364.75
2022-10-03T01:34:05.974Z,95365.03
2022-10-03T01:36:43.291Z,95369.16
2022-10-03T01:39:28.438Z,95370.25
2022-10-03T01:42:05.766Z,95378.13
2022-10-03T01:44:40.896Z,95369.00
2022-10-03T01:47:26.320Z,95368.13
2022-10-03T01:50:16.192Z,95372.69
2022-10-03T01:53:13.652Z,95372.13
2022-10-03T01:55:55.985Z,95384.75
2022-10-03T01:58:28.888Z,95385.03
2022-10-03T02:01:08.017Z,95393.22
2022-10-03T02:03:55.223Z,95398.63
2022-10-03T02:06:45.090Z,95412.47
2022-10-03T02:09:34.953Z,95352.47
2022-10-03T02:12:24.230Z,95330.34
2022-10-03T02:15:09.513Z,95373.28
2022-10-03T02:17:42.437Z,95419.16
2022-10-03T02:20:29.493Z,95415.38
2022-10-03T02:22:57.787Z,95384.53
2022-10-03T02:25:35.752Z,95370.59
2022-10-03T02:28:20.990Z,95413.50
2022-10-03T02:31:32.473Z,95373.22
2022-10-03T02:34:23.423Z,95376.69
2022-10-03T02:37:08.415Z,95422.88
2022-10-03T02:39:43.893Z,95429.13
2022-10-03T02:42:32.181Z,95436.59
2022-10-03T02:45:23.011Z,95374.13
2022-10-03T02:48:31.384Z,95360.13
2022-10-03T02:51:26.947Z,95393.03
2022-10-03T02:54:17.527Z,95442.00
2022-10-03T02:57:17.828Z,95430.31
2022-10-03T03:00:12.390Z,95429.97
2022-10-03T03:05:26.247Z,95442.63
2022-10-03T03:08:11.479Z,95424.06
2022-10-03T03:11:03.224Z,95423.31
2022-10-03T03:13:42.035Z,95429.91
2022-10-03T03:16:11.268Z,95433.66
2022-10-03T03:18:44.778Z,95435.34
2022-10-03T03:21:18.820Z,95424.69
2022-10-03T03:23:56.784Z,95433.66
2022-10-03T03:26:30.808Z,95431.59
2022-10-03T03:29:12.853Z,95432.84
2022-10-03T03:31:50.290Z,95427.28
2022-10-03T03:34:34.998Z,95419.78
2022-10-03T03:37:12.386Z,95410.97
2022-10-03T03:39:52.026Z,95398.84
2022-10-03T03:42:24.307Z,95428.91
2022-10-03T03:45:02.950Z,95416.94
2022-10-03T03:47:32.321Z,95417.16
2022-10-03T03:50:20.392Z,95411.66
2022-10-03T03:52:46.985Z,95414.31
2022-10-03T03:55:24.337Z,95414.19
2022-10-03T03:58:05.874Z,95415.41
2022-10-03T04:00:48.119Z,95409.63
2022-10-03T04:03:14.723Z,95404.78
2022-10-03T04:05:50.347Z,95393.28
2022-10-03T04:08:59.280Z,95404.47
2022-10-03T04:11:37.997Z,95404.34
2022-10-03T04:14:26.110Z,95404.75
2022-10-03T04:17:48.443Z,95415.66
2022-10-03T04:20:40.857Z,95412.94
2022-10-03T04:23:51.014Z,95412.38
2022-10-03T04:26:59.710Z,95422.59
2022-10-03T04:29:48.118Z,95415.13
2022-10-03T04:32:34.976Z,95412.94
2022-10-03T04:35:28.618Z,95413.38
2022-10-03T04:38:13.540Z,95424.56
2022-10-03T04:41:05.162Z,95425.09
2022-10-03T04:43:52.658Z,95417.81
2022-10-03T04:46:51.040Z,95421.63
2022-10-03T04:49:26.792Z,95420.56
2022-10-03T04:52:17.231Z,95418.75
2022-10-03T04:55:23.393Z,95429.94
2022-10-03T04:57:55.475Z,95425.69
2022-10-03T05:00:30.170Z,95423.19
2022-10-03T05:03:16.633Z,95429.28
2022-10-03T05:06:03.081Z,95433.69
2022-10-03T05:08:50.113Z,95416.84
2022-10-03T05:11:37.929Z,95438.13
2022-10-03T05:14:12.205Z,95440.88
2022-10-03T05:16:43.870Z,95442.25
2022-10-03T05:19:22.748Z,95443.38
2022-10-03T05:22:12.152Z,95449.44
2022-10-03T05:25:02.404Z,95452.75
2022-10-03T05:27:40.897Z,95451.50
2022-10-03T05:30:20.058Z,95447.38
2022-10-03T05:32:49.615Z,95451.63
2022-10-03T05:35:27.829Z,95453.88
2022-10-03T05:38:15.357Z,95455.81
2022-10-03T05:40:49.576Z,95443.38
2022-10-03T05:43:42.112Z,95457.44
2022-10-03T05:46:21.551Z,95460.91
2022-10-03T05:48:52.695Z,95471.53
2022-10-03T05:51:39.649Z,95471.25
2022-10-03T05:54:28.544Z,95477.31
2022-10-03T05:57:09.220Z,95478.19
2022-10-03T06:00:07.630Z,95480.38
2022-10-03T06:02:34.313Z,95498.06
2022-10-03T06:05:30.187Z,95492.00
2022-10-03T06:08:20.111Z,95489.06
2022-10-03T06:11:14.682Z,95490.44
2022-10-03T06:13:48.454Z,95496.94
2022-10-03T06:16:39.717Z,95498.47
2022-10-03T06:19:15.475Z,95503.56
2022-10-03T06:22:05.956Z,95508.53
2022-10-03T06:24:49.456Z,95511.16
2022-10-03T06:27:34.538Z,95510.44
2022-10-03T06:30:21.917Z,95506.03
2022-10-03T06:33:06.667Z,95512.78
2022-10-03T06:36:08.045Z,95513.59
2022-10-03T06:39:05.622Z,95523.94
2022-10-03T06:42:29.540Z,95524.53
2022-10-03T06:45:30.830Z,95535.91
2022-10-03T06:48:01.851Z,95537.81
2022-10-03T06:50:51.008Z,95545.41
2022-10-03T06:53:20.453Z,95541.38
2022-10-03T06:56:11.564Z,95548.34
2022-10-03T06:58:42.181Z,95552.38
2022-10-03T07:01:11.760Z,95554.69
2022-10-03T07:03:59.809Z,95546.94
2022-10-03T07:06:46.217Z,95547.25
2022-10-03T07:09:44.739Z,95555.25
2022-10-03T07:12:47.493Z,95552.50
2022-10-03T07:18:57.888Z,95539.22
2022-10-03T07:21:33.702Z,95541.44
2022-10-03T07:24:21.818Z,95543.63
2022-10-03T07:27:09.005Z,95534.63
2022-10-03T07:29:58.606Z,95543.75
2022-10-03T07:32:53.204Z,95542.50
2022-10-03T07:35:51.812Z,95542.25
2022-10-03T07:38:43.439Z,95548.00
2022-10-03T07:41:33.151Z,95543.56
2022-10-03T07:44:30.532Z,95546.94
2022-10-03T07:47:28.041Z,95550.50
2022-10-03T07:50:06.369Z,95551.94
2022-10-03T07:53:01.184Z,95553.22
2022-10-03T07:55:48.042Z,95550.22
2022-10-03T07:58:20.212Z,95551.16
2022-10-03T08:01:06.911Z,95549.34
2022-10-03T08:03:52.212Z,95549.75
2022-10-03T08:06:24.753Z,95544.91
2022-10-03T08:09:18.249Z,95549.78
2022-10-03T08:12:02.592Z,95548.84
2022-10-03T08:14:36.701Z,95540.03
2022-10-03T08:17:33.105Z,95544.47
2022-10-03T08:20:17.934Z,95540.00
2022-10-03T08:22:54.044Z,95543.09
2022-10-03T08:25:45.642Z,95539.56
2022-10-03T08:28:31.654Z,95543.78
2022-10-03T08:31:04.430Z,95537.19
2022-10-03T08:34:15.948Z,95544.94
2022-10-03T08:37:01.441Z,95549.06
2022-10-03T08:39:40.725Z,95556.19
2022-10-03T08:42:30.489Z,95550.94
2022-10-03T08:45:21.978Z,95553.25
2022-10-03T08:48:18.995Z,95547.00
2022-10-03T08:51:10.792Z,95544.19
2022-10-03T08:53:56.003Z,95554.41
2022-10-03T08:56:57.481Z,95546.69
2022-10-03T08:59:27.033Z,95547.16
2022-10-03T09:02:20.390Z,95551.28
2022-10-03T09:05:27.979Z,95554.44
2022-10-03T09:08:28.761Z,95552.94
2022-10-03T09:11:33.781Z,95545.31
2022-10-03T09:14:32.850Z,95542.34
2022-10-03T09:17:23.599Z,95542.31
2022-10-03T09:20:24.136Z,95548.44
2022-10-03T09:23:09.656Z,95537.31
2022-10-03T09:25:52.149Z,95544.91
2022-10-03T09:28:40.880Z,95548.03
2022-10-03T09:31:25.647Z,95538.81
2022-10-03T09:33:55.462Z,95541.28
2022-10-03T09:36:46.497Z,95551.38
2022-10-03T09:39:13.057Z,95541.13
2022-10-03T09:42:20.995Z,95541.00
2022-10-03T09:45:24.836Z,95540.53
2022-10-03T09:48:06.280Z,95535.75
2022-10-03T09:50:59.197Z,95536.91
2022-10-03T09:53:41.106Z,95537.69
2022-10-03T09:56:26.200Z,95530.25
2022-10-03T09:59:19.139Z,95529.59
2022-10-03T10:01:54.817Z,95523.94
2022-10-03T10:05:12.564Z,95520.81
2022-10-03T10:08:02.710Z,95521.28
2022-10-03T10:10:35.355Z,95525.75
2022-10-03T10:13:14.214Z,95517.31
2022-10-03T10:15:46.896Z,95511.16
2022-10-03T10:18:49.982Z,95510.69
2022-10-03T10:21:25.707Z,95514.81
2022-10-03T10:24:46.832Z,95511.69
2022-10-03T10:27:50.618Z,95510.88
2022-10-03T10:30:41.900Z,95514.19
2022-10-03T10:33:39.620Z,95510.06
2022-10-03T10:36:43.803Z,95515.88
2022-10-03T10:39:48.406Z,95517.53
2022-10-03T10:42:45.985Z,95517.69
2022-10-03T10:45:36.062Z,95522.00
2022-10-03T10:48:39.203Z,95521.19
2022-10-03T10:51:27.901Z,95514.00
2022-10-03T10:54:15.488Z,95514.81
2022-10-03T10:57:29.733Z,95508.84
2022-10-03T11:00:31.174Z,95510.75
2022-10-03T11:03:16.541Z,95507.41
2022-10-03T11:05:55.131Z,95496.41
2022-10-03T11:08:37.452Z,95494.56
2022-10-03T11:11:29.646Z,95502.06
2022-10-03T11:14:25.749Z,95497.94
2022-10-03T11:17:01.404Z,95501.59
2022-10-03T11:20:04.823Z,95493.88
2022-10-03T11:22:37.577Z,95490.03
2022-10-03T11:25:41.458Z,95492.69
2022-10-03T11:28:10.934Z,95487.56
2022-10-03T11:31:02.349Z,95479.00
2022-10-03T11:33:50.646Z,95486.91
2022-10-03T11:36:38.818Z,95483.72
2022-10-03T11:39:15.503Z,95484.03
2022-10-03T11:41:51.810Z,95489.56
2022-10-03T11:44:42.284Z,95481.91
2022-10-03T11:47:26.400Z,95488.88
2022-10-03T11:50:27.168Z,95484.06
2022-10-03T11:52:59.781Z,95486.41
2022-10-03T11:55:32.486Z,95483.25
2022-10-03T11:58:24.546Z,95492.94
2022-10-03T12:01:11.345Z,95479.06
2022-10-03T12:03:49.455Z,95483.94
2022-10-03T12:06:44.930Z,95484.00
2022-10-03T12:09:14.361Z,95478.28
2022-10-03T12:12:00.997Z,95477.19
2022-10-03T12:14:30.280Z,95485.19
2022-10-03T12:17:00.214Z,95477.19
2022-10-03T12:19:49.360Z,95473.78
2022-10-03T12:22:22.908Z,95482.69
2022-10-03T12:24:50.218Z,95479.66
2022-10-03T12:27:44.957Z,95477.59
2022-10-03T12:30:16.463Z,95476.00
2022-10-03T12:33:04.295Z,95471.59
2022-10-03T12:35:50.710Z,95471.69
2022-10-03T12:38:33.881Z,95472.44
2022-10-03T12:41:18.225Z,95463.34
2022-10-03T12:44:07.813Z,95464.03
2022-10-03T12:46:43.190Z,95465.81
2022-10-03T12:49:17.333Z,95465.19
2022-10-03T12:51:58.541Z,95457.56
2022-10-03T12:54:50.445Z,95455.50
2022-10-03T12:57:41.319Z,95463.38
2022-10-03T13:00:21.035Z,95455.84
2022-10-03T13:03:02.655Z,95449.47
2022-10-03T13:05:56.388Z,95451.75
2022-10-03T13:08:42.798Z,95445.34
2022-10-03T13:11:30.813Z,95444.28
2022-10-03T13:14:21.917Z,95444.25
2022-10-03T13:17:17.556Z,95445.28
2022-10-03T13:19:51.428Z,95442.44
2022-10-03T13:22:36.200Z,95440.03
2022-10-03T13:25:24.485Z,95425.41
2022-10-03T13:28:07.907Z,95437.34
2022-10-03T13:30:49.739Z,95438.97
2022-10-03T13:33:21.220Z,95438.97
2022-10-03T13:36:00.344Z,95432.41
2022-10-03T13:39:26.103Z,95442.00
2022-10-03T13:42:19.461Z,95437.59
2022-10-03T13:44:56.696Z,95428.94
2022-10-03T13:47:43.961Z,95435.97
2022-10-03T13:50:27.219Z,95432.41
2022-10-03T13:53:01.177Z,95431.75
2022-10-03T13:55:55.093Z,95422.25
2022-10-03T13:58:41.334Z,95410.97
2022-10-03T14:01:14.594Z,95414.66
2022-10-03T14:04:11.740Z,95423.84
2022-10-03T14:06:58.037Z,95418.25
2022-10-03T14:09:31.549Z,95420.06
2022-10-03T14:12:28.160Z,95423.31
2022-10-03T14:15:36.378Z,95422.56
2022-10-03T14:18:08.998Z,95411.91
2022-10-03T14:20:42.941Z,95416.22
2022-10-03T14:23:15.852Z,95408.16
2022-10-03T14:25:51.457Z,95412.28
2022-10-03T14:28:27.029Z,95408.31
2022-10-03T14:31:10.609Z,95418.66
2022-10-03T14:33:54.931Z,95417.81
2022-10-03T14:36:46.020Z,95407.69
2022-10-03T14:39:25.892Z,95416.81
2022-10-03T14:41:52.477Z,95420.19
2022-10-03T14:44:35.754Z,95399.31
2022-10-03T14:47:08.362Z,95408.00
2022-10-03T14:49:57.892Z,95405.56
2022-10-03T14:52:27.063Z,95403.63
2022-10-03T14:54:55.960Z,95405.72
2022-10-03T14:57:39.654Z,95406.75
2022-10-03T15:00:55.475Z,95407.38
2022-10-03T15:03:28.816Z,95396.69
2022-10-03T15:06:20.389Z,95395.88
2022-10-03T15:08:50.690Z,95393.41
2022-10-03T15:11:24.355Z,95396.09
2022-10-03T15:14:17.028Z,95376.97
2022-10-03T15:16:51.806Z,95376.59
2022-10-03T15:19:23.021Z,95394.00
2022-10-03T15:21:52.394Z,95374.84
2022-10-03T15:24:31.809Z,95392.41
2022-10-03T15:27:12.866Z,95387.41
2022-10-03T15:29:39.935Z,95391.78
2022-10-03T15:32:11.051Z,95396.59
2022-10-03T15:34:41.207Z,95390.38
2022-10-03T15:37:17.875Z,95373.16
2022-10-03T15:39:45.904Z,95389.88
2022-10-03T15:42:18.271Z,95385.50
2022-10-03T15:45:00.469Z,95383.97
2022-10-03T15:47:29.054Z,95385.16
2022-10-03T15:50:00.527Z,95371.22
2022-10-03T15:52:42.292Z,95384.50
2022-10-03T15:55:16.772Z,95370.88
2022-10-03T15:57:47.118Z,95385.97
2022-10-03T16:00:31.177Z,95395.66
2022-10-03T16:03:06.393Z,95379.63
2022-10-03T16:05:33.706Z,95394.69
2022-10-03T16:08:06.967Z,95390.06
2022-10-03T16:10:39.928Z,95394.28
2022-10-03T16:13:18.832Z,95382.94
2022-10-03T16:16:11.321Z,95396.13
2022-10-03T16:18:48.396Z,95392.41
2022-10-03T16:21:31.998Z,95386.00
2022-10-03T16:24:00.054Z,95383.66
2022-10-03T16:26:34.814Z,95388.50
2022-10-03T16:29:02.772Z,95388.41
2022-10-03T16:31:45.329Z,95392.78
2022-10-03T16:34:16.750Z,95397.94
2022-10-03T16:36:46.313Z,95403.72
2022-10-03T16:39:34.665Z,95392.22
2022-10-03T16:42:11.504Z,95392.25
2022-10-03T16:44:55.548Z,95393.09
2022-10-03T16:47:33.271Z,95394.34
2022-10-03T16:50:18.918Z,95394.47
2022-10-03T16:52:48.670Z,95406.41
2022-10-03T16:55:18.791Z,95404.31
2022-10-03T16:57:56.029Z,95399.41
2022-10-03T17:01:22.238Z,95401.19
2022-10-03T17:03:47.548Z,95392.66
2022-10-03T17:06:23.986Z,95391.84
2022-10-03T17:08:52.810Z,95388.53
2022-10-03T17:11:22.004Z,95403.28
2022-10-03T17:13:51.588Z,95405.75
2022-10-03T17:16:27.769Z,95413.38
2022-10-03T17:19:08.421Z,95412.00
2022-10-03T17:21:38.805Z,95414.00
2022-10-03T17:24:11.653Z,95436.47
2022-10-03T17:26:46.349Z,95445.84
2022-10-03T17:29:35.094Z,95448.13
2022-10-03T17:32:05.950Z,95438.91
2022-10-03T17:34:35.026Z,95433.97
2022-10-03T17:37:20.952Z,95425.38
2022-10-03T17:39:50.170Z,95418.44
2022-10-03T17:42:28.445Z,95423.22
2022-10-03T17:45:03.893Z,95421.41
2022-10-03T17:47:44.048Z,95422.06
2022-10-03T17:50:35.867Z,95419.41
2022-10-03T17:53:02.729Z,95436.69
2022-10-03T17:55:32.634Z,95436.63
2022-10-03T17:58:19.987Z,95430.88
2022-10-03T18:00:46.590Z,95421.13
2022-10-03T18:03:19.548Z,95410.66
2022-10-03T18:05:47.907Z,95430.47
2022-10-03T18:08:19.432Z,95403.94
2022-10-03T18:10:52.373Z,95420.78
2022-10-03T18:13:24.141Z,95419.88
2022-10-03T18:16:20.397Z,95431.22
2022-10-03T18:19:00.232Z,95427.22
2022-10-03T18:21:39.129Z,95429.81
2022-10-03T18:24:36.790Z,95437.03
2022-10-03T18:27:28.137Z,95439.94
2022-10-03T18:30:15.842Z,95422.78
2022-10-03T18:32:45.701Z,95422.66
2022-10-03T18:35:22.332Z,95428.53
2022-10-03T18:38:05.928Z,95433.56
2022-10-03T18:40:42.187Z,95424.25
2022-10-03T18:43:23.250Z,95419.28
2022-10-03T18:45:55.332Z,95417.41
2022-10-03T18:48:32.770Z,95437.78
2022-10-03T18:51:07.901Z,95422.53
2022-10-03T18:53:38.288Z,95415.31
2022-10-03T18:56:34.410Z,95422.25
2022-10-03T18:59:00.985Z,95421.72
2022-10-03T19:01:41.125Z,95410.56
2022-10-03T19:04:10.010Z,95415.75
2022-10-03T19:06:39.143Z,95413.88
2022-10-03T19:09:16.009Z,95411.53
2022-10-03T19:12:06.303Z,95410.03
2022-10-03T19:14:38.483Z,95420.16
2022-10-03T19:17:31.027Z,95415.38
2022-10-03T19:20:00.671Z,95414.00
2022-10-03T19:22:34.062Z,95426.78
2022-10-03T19:25:04.232Z,95422.63
2022-10-03T19:27:52.396Z,95427.06
2022-10-03T19:30:24.455Z,95421.31
2022-10-03T19:32:58.932Z,95430.97
2022-10-03T19:35:26.166Z,95431.31
2022-10-03T19:37:55.668Z,95434.63
2022-10-03T19:40:40.903Z,95441.56
2022-10-03T19:43:41.350Z,95434.72
2022-10-03T19:46:22.858Z,95429.34
2022-10-03T19:49:15.922Z,95440.00
2022-10-03T19:51:42.566Z,95417.75
2022-10-03T19:54:26.714Z,95427.03
2022-10-03T19:56:53.826Z,95440.28
2022-10-03T19:59:36.905Z,95450.78
2022-10-03T20:02:05.773Z,95443.47
2022-10-03T20:04:36.497Z,95452.44
2022-10-03T20:07:42.493Z,95441.69
2022-10-03T20:10:12.057Z,95443.50
2022-10-03T20:12:43.672Z,95431.63
2022-10-03T20:15:23.636Z,95431.22
2022-10-03T20:17:52.737Z,95434.69
2022-10-03T20:20:22.750Z,95431.75
2022-10-03T20:22:49.814Z,95436.44
2022-10-03T20:25:39.616Z,95437.84
2022-10-03T20:28:08.906Z,95437.00
2022-10-03T20:30:45.884Z,95437.28
2022-10-03T20:33:23.696Z,95424.03
2022-10-03T20:36:23.230Z,95418.50
2022-10-03T20:39:05.058Z,95419.50
2022-10-03T20:42:05.035Z,95423.06
2022-10-03T20:44:39.657Z,95398.72
2022-10-03T20:47:10.122Z,95412.44
2022-10-03T20:49:40.737Z,95416.84
2022-10-03T20:52:15.441Z,95420.69
2022-10-03T20:54:53.229Z,95417.38
2022-10-03T20:57:26.176Z,95410.19
2022-10-03T20:59:56.150Z,95418.44
2022-10-03T21:02:37.288Z,95406.03
2022-10-03T21:05:20.673Z,95400.75
2022-10-03T21:07:50.681Z,95398.25
2022-10-03T21:10:17.410Z,95404.88
2022-10-03T21:12:47.754Z,95413.13
2022-10-03T21:15:53.867Z,95405.53
2022-10-03T21:18:27.147Z,95400.84
2022-10-03T21:21:25.760Z,95387.19
2022-10-03T21:24:17.054Z,95395.03
2022-10-03T21:26:47.949Z,95397.25
2022-10-03T21:29:18.685Z,95395.72
2022-10-03T21:31:54.377Z,95396.69
2022-10-03T21:34:32.414Z,95394.06
2022-10-03T21:37:18.538Z,95404.81
2022-10-03T21:39:48.081Z,95393.25
2022-10-03T21:43:07.013Z,95398.47
2022-10-03T21:45:55.035Z,95394.00
2022-10-03T21:48:47.600Z,95396.63
2022-10-03T21:51:41.569Z,95394.25
2022-10-03T21:54:35.751Z,95402.47
2022-10-03T21:57:27.089Z,95395.59
2022-10-03T22:00:12.020Z,95384.09
2022-10-03T22:02:42.485Z,95386.59
2022-10-03T22:05:42.055Z,95379.78
2022-10-03T22:08:24.705Z,95383.09
2022-10-03T22:11:18.628Z,95376.88
2022-10-03T22:14:00.122Z,95360.53
2022-10-03T22:16:36.435Z,95364.94
2022-10-03T22:19:11.146Z,95372.53
2022-10-03T22:21:43.479Z,95364.03
2022-10-03T22:24:29.345Z,95367.69
2022-10-03T22:27:04.169Z,95361.75
2022-10-03T22:29:39.595Z,95362.25
2022-10-03T22:32:46.704Z,95361.22
2022-10-03T22:35:22.936Z,95352.53
2022-10-03T22:37:49.744Z,95356.06
2022-10-03T22:40:16.470Z,95354.44
2022-10-03T22:42:45.869Z,95360.78
2022-10-03T22:45:13.301Z,95362.34
2022-10-03T22:47:40.905Z,95350.16
2022-10-03T22:50:10.854Z,95338.69
2022-10-03T22:52:43.310Z,95344.72
2022-10-03T22:55:12.741Z,95348.69
2022-10-03T22:57:43.141Z,95362.22
2022-10-03T23:00:12.545Z,95355.59
2022-10-03T23:02:45.302Z,95344.63
2022-10-03T23:05:15.731Z,95344.38
2022-10-03T23:07:54.363Z,95344.09
2022-10-03T23:10:32.763Z,95337.47
2022-10-03T23:13:15.292Z,95324.72
2022-10-03T23:15:44.055Z,95334.78
2022-10-03T23:18:21.883Z,95336.81
2022-10-03T23:20:48.459Z,95335.69
2022-10-03T23:23:19.916Z,95323.91
2022-10-03T23:26:04.711Z,95319.56
2022-10-03T23:29:00.705Z,95324.16
2022-10-03T23:31:53.552Z,95330.66
2022-10-03T23:34:37.759Z,95319.22
2022-10-03T23:37:24.551Z,95311.38
2022-10-03T23:39:54.548Z,95317.81
2022-10-03T23:42:21.142Z,95315.41
2022-10-03T23:44:50.665Z,95319.56
2022-10-03T23:47:20.223Z,95316.06
2022-10-03T23:49:49.156Z,95302.00
2022-10-03T23:52:40.109Z,95307.25
2022-10-03T23:55:08.393Z,95310.13
2022-10-03T23:57:37.441Z,95312.91
